Enola, Pennsylvania
Current Conditions -  °F | °C
As of 11:56 AM on Thursday 23 Oct 2014 (Local Time) from KCXY Reporting Station
Overcast Overcast  
Wind Chill: 57°   Ceiling: 3100
Heat Index: 57°   Visibility: 10mi
Dew Point: 44°   Wind: 10mph
Humidity: 62%   Direction: 330°NNW
Pressure: 29.88"   Gusts: NA
Location:  40.29°N, 76.93°W
Report Text: KCXY 231556Z 33009KT 10SM OVC031 14/07 A2988 RMK AO2 SLP118 T01390067
Loading
Personal Weather Stations






























Interactive Weather Map
Tropical Storm Tracking
New forecast layout! Learn more

10-Day Weather Forecast

Advertisements
Track Severe Weather on mobile